createdAt,value
2023-02-12T00:00:59.655Z,129.18
2023-02-12T00:03:57.272Z,157.98
2023-02-12T00:06:54.157Z,153.13
2023-02-12T00:09:51.048Z,126.07
2023-02-12T00:12:47.985Z,147.00
2023-02-12T00:15:45.891Z,159.45
2023-02-12T00:18:44.110Z,146.38
2023-02-12T00:21:40.919Z,119.57
2023-02-12T00:24:37.719Z,126.28
2023-02-12T00:27:35.698Z,120.75
2023-02-12T00:30:32.555Z,126.53
2023-02-12T00:33:29.691Z,144.27
2023-02-12T00:36:29.467Z,118.97
2023-02-12T00:39:26.355Z,125.07
2023-02-12T00:42:23.179Z,105.32
2023-02-12T00:45:20.292Z,92.25
2023-02-12T00:48:17.301Z,114.78
2023-02-12T00:51:14.657Z,112.05
2023-02-12T00:54:11.501Z,101.40
2023-02-12T00:57:08.312Z,130.93
2023-02-12T01:00:06.159Z,103.35
2023-02-12T01:03:04.159Z,108.57
2023-02-12T01:06:01.044Z,94.40
2023-02-12T01:08:57.830Z,92.95
2023-02-12T01:11:54.654Z,89.38
2023-02-12T01:14:51.457Z,105.20
2023-02-12T01:17:48.292Z,82.25
2023-02-12T01:20:45.113Z,87.60
2023-02-12T01:23:42.985Z,98.60
2023-02-12T01:26:39.855Z,104.78
2023-02-12T01:29:38.246Z,90.07
2023-02-12T01:32:35.288Z,94.72
2023-02-12T01:35:32.153Z,81.60
2023-02-12T01:38:28.963Z,101.70
2023-02-12T01:41:41.852Z,81.50
2023-02-12T01:45:12.065Z,77.70
2023-02-12T01:48:08.888Z,80.45
2023-02-12T01:51:09.328Z,71.07
2023-02-12T01:54:08.526Z,76.05
2023-02-12T01:57:08.305Z,68.72
2023-02-12T02:00:20.111Z,73.23
2023-02-12T02:03:17.108Z,73.13
2023-02-12T02:06:23.545Z,79.43
2023-02-12T02:09:20.937Z,68.63
2023-02-12T02:12:36.679Z,63.22
2023-02-12T02:15:34.276Z,62.25
2023-02-12T02:18:44.278Z,65.50
2023-02-12T02:22:14.891Z,66.30
2023-02-12T02:25:34.419Z,68.30
2023-02-12T02:28:52.924Z,71.75
2023-02-12T02:32:06.327Z,61.65
2023-02-12T02:35:26.648Z,58.78
2023-02-12T02:38:39.714Z,53.47
2023-02-12T02:42:05.721Z,53.78
2023-02-12T02:45:16.602Z,54.80
2023-02-12T02:48:27.044Z,49.58
2023-02-12T02:51:31.907Z,67.18
2023-02-12T02:54:36.929Z,50.83
2023-02-12T02:58:02.512Z,60.63
2023-02-12T03:01:06.962Z,40.85
2023-02-12T03:04:08.769Z,68.72
2023-02-12T03:07:19.421Z,55.78
2023-02-12T03:10:26.532Z,62.75
2023-02-12T03:13:31.680Z,52.67
2023-02-12T03:16:35.113Z,46.38
2023-02-12T03:19:46.638Z,45.67
2023-02-12T03:22:55.406Z,46.95
2023-02-12T03:26:12.534Z,38.05
2023-02-12T03:29:09.626Z,38.60
2023-02-12T03:32:51.507Z,42.10
2023-02-12T03:36:06.925Z,35.92
2023-02-12T03:39:35.163Z,35.63
2023-02-12T03:42:56.727Z,37.67
2023-02-12T03:46:04.517Z,37.63
2023-02-12T03:49:12.318Z,32.08
2023-02-12T03:52:09.372Z,26.00
2023-02-12T03:55:08.254Z,31.15
2023-02-12T03:58:13.584Z,28.90
2023-02-12T04:01:12.878Z,34.20
2023-02-12T04:04:10.228Z,35.97
2023-02-12T04:07:07.314Z,32.22
2023-02-12T04:10:04.600Z,30.85
2023-02-12T04:13:23.906Z,29.70
2023-02-12T04:16:48.743Z,34.28
2023-02-12T04:20:27.578Z,32.60
2023-02-12T04:23:55.404Z,32.30
2023-02-12T04:27:02.684Z,30.42
2023-02-12T04:30:22.501Z,27.50
2023-02-12T04:33:22.949Z,34.50
2023-02-12T04:36:30.844Z,31.77
2023-02-12T04:39:31.558Z,23.33
2023-02-12T04:45:33.146Z,23.42
2023-02-12T04:48:30.152Z,25.15
2023-02-12T04:51:27.016Z,23.13
2023-02-12T04:54:24.497Z,23.48
2023-02-12T04:57:21.308Z,27.63
2023-02-12T05:00:18.540Z,29.30
2023-02-12T05:03:15.415Z,24.35
2023-02-12T05:06:12.207Z,29.10
2023-02-12T05:09:16.848Z,25.65
2023-02-12T05:12:13.661Z,18.10
2023-02-12T05:15:10.640Z,19.50
2023-02-12T05:18:07.445Z,17.55
2023-02-12T05:21:05.551Z,17.65
2023-02-12T05:24:03.212Z,17.83
2023-02-12T05:27:00.039Z,19.50
2023-02-12T05:29:56.888Z,20.20
2023-02-12T05:32:53.703Z,23.88
2023-02-12T05:35:50.582Z,21.75
2023-02-12T05:38:48.609Z,19.42
2023-02-12T05:41:45.424Z,21.15
2023-02-12T05:44:42.255Z,22.98
2023-02-12T05:47:39.076Z,19.58
2023-02-12T05:50:36.381Z,19.90
2023-02-12T05:53:33.704Z,19.40
2023-02-12T05:56:37.650Z,15.52
2023-02-12T05:59:34.537Z,25.25
2023-02-12T06:02:31.361Z,24.80
2023-02-12T06:05:28.202Z,26.58
2023-02-12T06:08:25.007Z,25.75
2023-02-12T06:11:22.118Z,38.25
2023-02-12T06:14:20.835Z,27.90
2023-02-12T06:17:17.633Z,23.85
2023-02-12T06:20:14.435Z,24.58
2023-02-12T06:23:11.230Z,29.52
2023-02-12T06:26:09.138Z,21.75
2023-02-12T06:29:06.445Z,24.70
2023-02-12T06:32:03.579Z,29.13
2023-02-12T06:35:00.574Z,19.85
2023-02-12T06:38:00.978Z,20.50
2023-02-12T06:41:01.032Z,21.70
2023-02-12T06:43:58.521Z,23.35
2023-02-12T06:46:55.413Z,22.67
2023-02-12T06:49:52.351Z,28.42
2023-02-12T06:52:49.215Z,21.60
2023-02-12T06:55:46.035Z,23.40
2023-02-12T06:58:47.242Z,19.52
2023-02-12T07:01:44.354Z,24.70
2023-02-12T07:04:41.242Z,24.65
2023-02-12T07:07:38.082Z,21.95
2023-02-12T07:10:34.964Z,21.73
2023-02-12T07:13:34.782Z,20.23
2023-02-12T07:16:31.810Z,22.95
2023-02-12T07:19:28.639Z,25.27
2023-02-12T07:22:25.611Z,28.63
2023-02-12T07:25:22.429Z,28.08
2023-02-12T07:28:19.245Z,19.88
2023-02-12T07:31:20.308Z,31.63
2023-02-12T07:34:17.491Z,36.90
2023-02-12T07:37:14.362Z,30.17
2023-02-12T07:40:11.528Z,24.08
2023-02-12T07:43:08.397Z,20.75
2023-02-12T07:46:14.502Z,24.75
2023-02-12T07:49:16.083Z,23.73
2023-02-12T07:52:13.485Z,19.75
2023-02-12T07:55:10.771Z,20.70
2023-02-12T07:58:07.572Z,25.73
2023-02-12T08:01:24.543Z,37.15
2023-02-12T08:04:24.766Z,31.38
2023-02-12T08:07:21.617Z,33.03
2023-02-12T08:10:22.269Z,28.52
2023-02-12T08:16:24.031Z,23.58
2023-02-12T08:19:25.768Z,26.83
2023-02-12T08:22:23.404Z,34.83
2023-02-12T08:25:20.217Z,26.85
2023-02-12T08:28:17.185Z,25.92
2023-02-12T08:31:20.142Z,24.92
2023-02-12T08:34:35.620Z,33.85
2023-02-12T08:37:32.457Z,32.25
2023-02-12T08:40:29.358Z,25.42
2023-02-12T08:43:27.390Z,22.00
2023-02-12T08:46:30.450Z,20.80
2023-02-12T08:49:30.012Z,26.23
2023-02-12T08:52:27.424Z,26.95
2023-02-12T08:55:24.245Z,22.80
2023-02-12T08:58:21.066Z,30.02
2023-02-12T09:01:21.661Z,55.20
2023-02-12T09:04:26.139Z,40.63
2023-02-12T09:07:23.046Z,33.05
2023-02-12T09:10:19.909Z,30.08
2023-02-12T09:13:16.743Z,31.15
2023-02-12T09:16:14.875Z,29.95
2023-02-12T09:19:14.340Z,29.27
2023-02-12T09:22:12.049Z,25.83
2023-02-12T09:25:08.965Z,28.00
2023-02-12T09:28:05.870Z,29.38
2023-02-12T09:31:12.621Z,29.77
2023-02-12T09:34:09.555Z,40.28
2023-02-12T09:37:06.369Z,34.63
2023-02-12T09:40:04.745Z,47.08
2023-02-12T09:43:15.518Z,33.85
2023-02-12T09:49:46.109Z,43.78
2023-02-12T09:52:43.899Z,54.63
2023-02-12T09:55:41.217Z,50.10
2023-02-12T09:58:56.529Z,65.28
2023-02-12T10:01:53.469Z,60.63
2023-02-12T10:05:00.984Z,52.03
2023-02-12T10:08:20.613Z,49.15
2023-02-12T10:11:53.237Z,41.15
2023-02-12T10:15:30.498Z,30.60
2023-02-12T10:18:57.815Z,32.47
2023-02-12T10:22:26.591Z,28.75
2023-02-12T10:25:52.236Z,28.02
2023-02-12T10:28:51.169Z,29.95
2023-02-12T10:32:07.306Z,29.83
2023-02-12T10:35:18.102Z,31.33
2023-02-12T10:41:18.280Z,31.52
2023-02-12T10:44:15.379Z,33.25
2023-02-12T10:47:32.520Z,32.65
2023-02-12T10:51:04.161Z,36.25
2023-02-12T10:54:41.838Z,29.10
2023-02-12T10:57:39.602Z,42.83
2023-02-12T11:00:38.378Z,44.28
2023-02-12T11:03:37.563Z,35.63
2023-02-12T11:06:34.401Z,35.55
2023-02-12T11:09:40.733Z,31.85
2023-02-12T11:12:48.071Z,34.70
2023-02-12T11:15:49.508Z,35.72
2023-02-12T11:18:57.243Z,26.70
2023-02-12T11:22:18.976Z,24.52
2023-02-12T11:25:16.935Z,22.35
2023-02-12T11:28:19.643Z,27.10
2023-02-12T11:31:16.541Z,17.17
2023-02-12T11:34:18.785Z,21.35
2023-02-12T11:37:19.821Z,16.90
2023-02-12T11:40:30.208Z,18.30
2023-02-12T11:43:30.155Z,15.38
2023-02-12T11:46:28.649Z,9.60
2023-02-12T11:49:37.470Z,10.75
2023-02-12T11:52:37.702Z,10.23
2023-02-12T11:55:39.890Z,10.27
2023-02-12T11:58:36.708Z,7.70
2023-02-12T12:01:37.609Z,7.68
2023-02-12T12:04:36.561Z,8.13
2023-02-12T12:07:36.744Z,9.35
2023-02-12T12:10:46.224Z,10.02
2023-02-12T12:14:58.160Z,9.85
2023-02-12T12:18:23.149Z,9.57
2023-02-12T12:21:43.513Z,8.65
2023-02-12T12:25:29.307Z,8.55
2023-02-12T12:28:40.794Z,7.82
2023-02-12T12:31:49.169Z,8.68
2023-02-12T12:34:46.049Z,6.85
2023-02-12T12:38:13.117Z,6.70
2023-02-12T12:41:41.217Z,15.40
2023-02-12T12:44:55.845Z,17.33
2023-02-12T12:48:08.242Z,13.73
2023-02-12T12:51:36.421Z,15.20
2023-02-12T12:55:06.638Z,20.20
2023-02-12T12:58:26.118Z,17.48
2023-02-12T13:01:57.085Z,16.00
2023-02-12T13:08:45.835Z,22.33
2023-02-12T13:12:13.232Z,22.35
2023-02-12T13:15:33.317Z,22.05
2023-02-12T13:18:41.534Z,21.50
2023-02-12T13:21:53.251Z,16.02
2023-02-12T13:25:04.255Z,24.50
2023-02-12T13:28:03.670Z,21.23
2023-02-12T13:31:05.039Z,15.10
2023-02-12T13:34:13.685Z,14.68
2023-02-12T13:37:25.540Z,14.75
2023-02-12T13:40:26.361Z,10.55
2023-02-12T13:47:15.263Z,11.10
2023-02-12T13:51:01.017Z,9.52
2023-02-12T13:54:11.775Z,10.27
2023-02-12T13:57:15.237Z,10.45
2023-02-12T14:01:01.137Z,9.82
2023-02-12T14:04:19.328Z,11.95
2023-02-12T14:07:16.454Z,10.10
2023-02-12T14:10:21.388Z,8.93
2023-02-12T14:13:24.364Z,9.57
2023-02-12T14:16:30.146Z,10.88
2023-02-12T14:19:51.866Z,11.15
2023-02-12T14:22:48.591Z,9.70
2023-02-12T14:26:15.771Z,13.02
2023-02-12T14:29:22.752Z,9.43
2023-02-12T14:32:58.124Z,10.43
2023-02-12T14:36:15.163Z,8.50
2023-02-12T14:39:20.996Z,10.80
2023-02-12T14:42:23.754Z,8.88
2023-02-12T14:45:34.244Z,9.13
2023-02-12T14:49:05.878Z,9.57
2023-02-12T14:52:14.182Z,9.68
2023-02-12T14:55:26.310Z,11.50
2023-02-12T14:58:26.803Z,9.90
2023-02-12T15:01:34.826Z,10.77
2023-02-12T15:04:37.838Z,10.20
2023-02-12T15:07:45.829Z,13.10
2023-02-12T15:11:21.409Z,9.15
2023-02-12T15:14:53.192Z,10.82
2023-02-12T15:18:01.685Z,10.70
2023-02-12T15:21:21.829Z,12.30
2023-02-12T15:24:25.532Z,11.90
2023-02-12T15:27:25.292Z,10.70
2023-02-12T15:30:30.386Z,10.15
2023-02-12T15:33:34.210Z,13.48
2023-02-12T15:36:33.452Z,14.88
2023-02-12T15:39:44.083Z,15.25
2023-02-12T15:42:42.880Z,17.30
2023-02-12T15:45:39.851Z,15.38
2023-02-12T15:48:38.821Z,15.23
2023-02-12T15:51:41.677Z,16.80
2023-02-12T15:54:39.255Z,35.47
2023-02-12T15:57:36.070Z,39.38
2023-02-12T16:00:43.563Z,28.75
2023-02-12T16:03:40.986Z,28.33
2023-02-12T16:06:37.955Z,40.10
2023-02-12T16:09:36.354Z,36.17
2023-02-12T16:12:37.510Z,36.72
2023-02-12T16:15:35.428Z,39.40
2023-02-12T16:18:32.360Z,45.63
2023-02-12T16:21:29.233Z,67.88
2023-02-12T16:24:30.475Z,52.75
2023-02-12T16:27:34.271Z,27.77
2023-02-12T16:30:42.960Z,39.42
2023-02-12T16:33:39.913Z,45.60
2023-02-12T16:36:47.108Z,46.75
2023-02-12T16:39:55.893Z,65.40
2023-02-12T16:42:52.715Z,77.05
2023-02-12T16:45:50.638Z,37.75
2023-02-12T16:48:54.076Z,33.55
2023-02-12T16:51:53.043Z,51.78
2023-02-12T16:54:50.003Z,109.50
2023-02-12T16:57:46.879Z,99.80
2023-02-12T17:00:44.011Z,65.80
2023-02-12T17:03:42.164Z,47.08
2023-02-12T17:06:39.063Z,52.17
2023-02-12T17:09:36.004Z,43.33
2023-02-12T17:12:33.506Z,58.83
2023-02-12T17:15:55.282Z,37.53
2023-02-12T17:18:52.433Z,30.67
2023-02-12T17:21:51.204Z,54.05
2023-02-12T17:24:51.531Z,25.05
2023-02-12T17:27:48.776Z,28.45
2023-02-12T17:30:45.817Z,35.08
2023-02-12T17:33:42.696Z,37.67
2023-02-12T17:36:40.117Z,31.70
2023-02-12T17:39:36.950Z,34.42
2023-02-12T17:42:34.118Z,42.17
2023-02-12T17:45:31.360Z,188.77
2023-02-12T17:48:28.426Z,96.88
2023-02-12T17:51:25.930Z,79.45
2023-02-12T17:54:22.844Z,68.00
2023-02-12T17:57:19.863Z,51.97
2023-02-12T18:00:17.679Z,25.60
2023-02-12T18:03:14.565Z,33.78
2023-02-12T18:06:14.262Z,32.05
2023-02-12T18:09:11.177Z,53.38
2023-02-12T18:12:08.216Z,36.03
2023-02-12T18:15:07.625Z,37.78
2023-02-12T18:18:04.465Z,45.08
2023-02-12T18:21:01.288Z,78.13
2023-02-12T18:23:58.102Z,81.80
2023-02-12T18:26:54.993Z,151.55
2023-02-12T18:29:51.923Z,230.10
2023-02-12T18:32:48.776Z,40.30
2023-02-12T18:35:45.602Z,35.10
2023-02-12T18:38:43.739Z,18.17
2023-02-12T18:41:40.707Z,19.67
2023-02-12T18:44:37.643Z,26.92
2023-02-12T18:47:34.711Z,16.80
2023-02-12T18:50:31.551Z,19.90
2023-02-12T18:53:28.631Z,14.82
2023-02-12T18:56:25.498Z,17.98
2023-02-12T18:59:22.667Z,20.05
2023-02-12T19:02:19.561Z,20.60
2023-02-12T19:05:16.654Z,31.48
2023-02-12T19:08:13.990Z,181.23
2023-02-12T19:11:12.900Z,30.25
2023-02-12T19:14:11.048Z,73.40
2023-02-12T19:17:07.990Z,36.90
2023-02-12T19:20:05.193Z,112.05
2023-02-12T19:23:02.013Z,73.85
2023-02-12T19:26:05.180Z,47.40
2023-02-12T19:29:02.818Z,47.15
2023-02-12T19:31:59.743Z,35.42
2023-02-12T19:34:56.593Z,30.90
2023-02-12T19:37:53.401Z,26.98
2023-02-12T19:40:50.690Z,20.75
2023-02-12T19:43:48.197Z,21.77
2023-02-12T19:46:46.060Z,21.33
2023-02-12T19:49:43.347Z,20.73
2023-02-12T19:52:41.379Z,15.40
2023-02-12T19:55:38.236Z,36.97
2023-02-12T19:58:35.277Z,20.88
2023-02-12T20:01:33.344Z,52.80
2023-02-12T20:04:30.972Z,84.32
2023-02-12T20:07:28.024Z,71.88
2023-02-12T20:10:24.866Z,46.95
2023-02-12T20:13:22.774Z,43.55
2023-02-12T20:16:23.834Z,34.13
2023-02-12T20:19:25.361Z,54.20
2023-02-12T20:22:24.352Z,33.65
2023-02-12T20:25:21.574Z,20.00
2023-02-12T20:28:18.810Z,16.25
2023-02-12T20:31:20.437Z,16.65
2023-02-12T20:34:19.681Z,16.92
2023-02-12T20:37:18.099Z,27.38
2023-02-12T20:40:14.908Z,66.93
2023-02-12T20:43:11.717Z,40.72
2023-02-12T20:46:16.560Z,27.80
2023-02-12T20:49:16.033Z,24.70
2023-02-12T20:52:13.019Z,17.70
2023-02-12T20:55:09.965Z,17.17
2023-02-12T20:58:06.769Z,23.08
2023-02-12T21:01:09.723Z,20.38
2023-02-12T21:04:13.403Z,15.02
2023-02-12T21:07:10.360Z,13.27
2023-02-12T21:10:07.909Z,16.02
2023-02-12T21:13:04.711Z,21.27
2023-02-12T21:16:11.006Z,29.02
2023-02-12T21:19:09.034Z,18.42
2023-02-12T21:22:05.872Z,12.05
2023-02-12T21:25:02.681Z,11.25
2023-02-12T21:27:59.534Z,10.50
2023-02-12T21:30:56.393Z,13.07
2023-02-12T21:33:55.690Z,13.43
2023-02-12T21:36:56.998Z,14.60
2023-02-12T21:39:53.814Z,16.15
2023-02-12T21:42:50.620Z,21.90
2023-02-12T21:45:53.339Z,22.77
2023-02-12T21:48:51.075Z,12.38
2023-02-12T21:51:47.882Z,9.75
2023-02-12T21:54:45.284Z,11.10
2023-02-12T21:57:42.149Z,12.60
2023-02-12T22:00:39.012Z,13.30
2023-02-12T22:03:36.653Z,12.23
2023-02-12T22:06:38.859Z,12.85
2023-02-12T22:09:35.731Z,18.73
2023-02-12T22:12:34.669Z,14.23
2023-02-12T22:15:31.486Z,16.63
2023-02-12T22:18:28.312Z,19.90
2023-02-12T22:21:28.192Z,16.52
2023-02-12T22:24:25.024Z,18.53
2023-02-12T22:27:21.821Z,15.10
2023-02-12T22:30:18.892Z,21.00
2023-02-12T22:33:15.701Z,13.48
2023-02-12T22:36:12.720Z,14.35
2023-02-12T22:39:12.994Z,26.45
2023-02-12T22:42:10.217Z,21.80
2023-02-12T22:45:07.451Z,24.67
2023-02-12T22:48:04.414Z,20.70
2023-02-12T22:51:07.816Z,33.95
2023-02-12T22:54:06.274Z,14.27
2023-02-12T22:57:03.085Z,16.58
2023-02-12T22:59:59.926Z,14.30
2023-02-12T23:02:56.721Z,10.52
2023-02-12T23:05:53.558Z,8.98
2023-02-12T23:08:56.018Z,10.38
2023-02-12T23:11:52.812Z,12.48
2023-02-12T23:14:49.628Z,18.85
2023-02-12T23:17:47.348Z,16.90
2023-02-12T23:20:44.176Z,13.30
2023-02-12T23:23:41.293Z,11.68
2023-02-12T23:26:38.103Z,11.15
2023-02-12T23:29:35.051Z,7.57
2023-02-12T23:32:31.962Z,8.55
2023-02-12T23:35:28.855Z,10.98
2023-02-12T23:38:25.692Z,13.40
2023-02-12T23:41:22.589Z,12.55
2023-02-12T23:44:19.424Z,11.85
2023-02-12T23:47:16.219Z,10.10
2023-02-12T23:50:13.054Z,8.90
2023-02-12T23:53:10.994Z,10.20
2023-02-12T23:56:08.002Z,11.80
2023-02-12T23:59:05.299Z,9.55
